sensor_id;sensor_type;location;lat;lon;timestamp;temperature;humidity
19555;DHT22;9924;50.828;6.440;2023-12-29T00:02:23;10.30;99.90
19555;DHT22;9924;50.828;6.440;2023-12-29T00:04:49;10.30;99.90
19555;DHT22;9924;50.828;6.440;2023-12-29T00:07:15;10.30;99.90
19555;DHT22;9924;50.828;6.440;2023-12-29T00:09:41;10.30;99.90
19555;DHT22;9924;50.828;6.440;2023-12-29T00:12:07;10.30;99.90
19555;DHT22;9924;50.828;6.440;2023-12-29T00:14:36;10.20;99.90
19555;DHT22;9924;50.828;6.440;2023-12-29T00:17:03;10.20;99.90
19555;DHT22;9924;50.828;6.440;2023-12-29T00:19:29;10.20;99.90
19555;DHT22;9924;50.828;6.440;2023-12-29T00:21:54;10.20;99.90
19555;DHT22;9924;50.828;6.440;2023-12-29T00:24:20;10.20;99.90
19555;DHT22;9924;50.828;6.440;2023-12-29T00:26:46;10.20;99.90
19555;DHT22;9924;50.828;6.440;2023-12-29T00:29:14;10.20;99.90
19555;DHT22;9924;50.828;6.440;2023-12-29T00:31:40;10.20;99.90
19555;DHT22;9924;50.828;6.440;2023-12-29T00:34:06;10.20;99.90
19555;DHT22;9924;50.828;6.440;2023-12-29T00:36:32;10.10;99.90
19555;DHT22;9924;50.828;6.440;2023-12-29T00:38:57;10.10;99.90
19555;DHT22;9924;50.828;6.440;2023-12-29T00:41:23;10.10;99.90
19555;DHT22;9924;50.828;6.440;2023-12-29T00:43:49;10.00;99.90
19555;DHT22;9924;50.828;6.440;2023-12-29T00:46:15;9.90;99.90
19555;DHT22;9924;50.828;6.440;2023-12-29T00:48:43;10.00;99.90
19555;DHT22;9924;50.828;6.440;2023-12-29T00:51:09;10.00;99.90
19555;DHT22;9924;50.828;6.440;2023-12-29T00:53:35;10.00;99.90
19555;DHT22;9924;50.828;6.440;2023-12-29T00:56:01;10.00;99.90
19555;DHT22;9924;50.828;6.440;2023-12-29T00:58:27;10.00;99.90
19555;DHT22;9924;50.828;6.440;2023-12-29T01:00:53;10.00;99.90
19555;DHT22;9924;50.828;6.440;2023-12-29T01:03:18;10.00;99.90
19555;DHT22;9924;50.828;6.440;2023-12-29T01:05:45;10.00;99.90
19555;DHT22;9924;50.828;6.440;2023-12-29T01:08:11;10.00;99.90
19555;DHT22;9924;50.828;6.440;2023-12-29T01:10:36;10.00;99.90
19555;DHT22;9924;50.828;6.440;2023-12-29T01:13:03;10.00;99.90
19555;DHT22;9924;50.828;6.440;2023-12-29T01:15:29;9.90;99.90
19555;DHT22;9924;50.828;6.440;2023-12-29T01:17:55;9.90;99.90
19555;DHT22;9924;50.828;6.440;2023-12-29T01:20:21;10.00;99.90
19555;DHT22;9924;50.828;6.440;2023-12-29T01:22:46;9.90;99.90
19555;DHT22;9924;50.828;6.440;2023-12-29T01:25:12;9.90;99.90
19555;DHT22;9924;50.828;6.440;2023-12-29T01:27:38;9.90;99.90
19555;DHT22;9924;50.828;6.440;2023-12-29T01:30:04;9.90;99.90
19555;DHT22;9924;50.828;6.440;2023-12-29T01:32:30;9.90;99.90
19555;DHT22;9924;50.828;6.440;2023-12-29T01:34:55;9.90;99.90
19555;DHT22;9924;50.828;6.440;2023-12-29T01:37:21;9.80;99.90
19555;DHT22;9924;50.828;6.440;2023-12-29T01:39:47;9.80;99.90
19555;DHT22;9924;50.828;6.440;2023-12-29T01:42:12;9.80;99.90
19555;DHT22;9924;50.828;6.440;2023-12-29T01:44:38;9.90;99.90
19555;DHT22;9924;50.828;6.440;2023-12-29T01:47:05;10.00;99.90
19555;DHT22;9924;50.828;6.440;2023-12-29T01:49:36;10.00;99.90
19555;DHT22;9924;50.828;6.440;2023-12-29T01:52:02;10.00;99.90
19555;DHT22;9924;50.828;6.440;2023-12-29T01:54:31;9.90;99.90
19555;DHT22;9924;50.828;6.440;2023-12-29T01:56:59;10.00;99.90
19555;DHT22;9924;50.828;6.440;2023-12-29T01:59:27;10.00;99.90
19555;DHT22;9924;50.828;6.440;2023-12-29T02:01:55;10.00;99.90
19555;DHT22;9924;50.828;6.440;2023-12-29T02:04:23;10.00;99.90
19555;DHT22;9924;50.828;6.440;2023-12-29T02:06:49;10.00;99.90
19555;DHT22;9924;50.828;6.440;2023-12-29T02:09:17;10.00;99.90
19555;DHT22;9924;50.828;6.440;2023-12-29T02:11:42;10.00;99.90
19555;DHT22;9924;50.828;6.440;2023-12-29T02:14:08;10.00;99.90
19555;DHT22;9924;50.828;6.440;2023-12-29T02:16:54;10.00;99.90
19555;DHT22;9924;50.828;6.440;2023-12-29T02:19:28;10.10;99.90
19555;DHT22;9924;50.828;6.440;2023-12-29T02:22:01;10.00;99.90
19555;DHT22;9924;50.828;6.440;2023-12-29T02:24:27;10.00;99.90
19555;DHT22;9924;50.828;6.440;2023-12-29T02:27:01;10.00;99.90
19555;DHT22;9924;50.828;6.440;2023-12-29T02:29:30;10.00;99.90
19555;DHT22;9924;50.828;6.440;2023-12-29T02:31:59;10.00;99.90
19555;DHT22;9924;50.828;6.440;2023-12-29T02:34:28;10.10;99.90
19555;DHT22;9924;50.828;6.440;2023-12-29T02:36:54;10.10;99.90
19555;DHT22;9924;50.828;6.440;2023-12-29T02:39:21;10.10;99.90
19555;DHT22;9924;50.828;6.440;2023-12-29T02:41:47;10.00;99.90
19555;DHT22;9924;50.828;6.440;2023-12-29T02:44:13;10.10;99.90
19555;DHT22;9924;50.828;6.440;2023-12-29T02:46:39;10.10;99.90
19555;DHT22;9924;50.828;6.440;2023-12-29T02:49:04;10.00;99.90
19555;DHT22;9924;50.828;6.440;2023-12-29T02:51:30;10.00;99.90
19555;DHT22;9924;50.828;6.440;2023-12-29T02:53:56;10.00;99.90
19555;DHT22;9924;50.828;6.440;2023-12-29T02:56:22;10.00;99.90
19555;DHT22;9924;50.828;6.440;2023-12-29T02:58:47;10.10;99.90
19555;DHT22;9924;50.828;6.440;2023-12-29T03:01:14;10.10;99.90
19555;DHT22;9924;50.828;6.440;2023-12-29T03:03:39;10.20;99.90
19555;DHT22;9924;50.828;6.440;2023-12-29T03:06:06;10.20;99.90
19555;DHT22;9924;50.828;6.440;2023-12-29T03:08:32;10.30;99.90
19555;DHT22;9924;50.828;6.440;2023-12-29T03:10:58;10.30;99.90
19555;DHT22;9924;50.828;6.440;2023-12-29T03:13:24;10.30;99.90
19555;DHT22;9924;50.828;6.440;2023-12-29T03:15:50;10.30;99.90
19555;DHT22;9924;50.828;6.440;2023-12-29T03:18:15;10.30;99.90
19555;DHT22;9924;50.828;6.440;2023-12-29T03:20:41;10.20;99.90
19555;DHT22;9924;50.828;6.440;2023-12-29T03:23:07;10.10;99.90
19555;DHT22;9924;50.828;6.440;2023-12-29T03:25:33;10.10;99.90
19555;DHT22;9924;50.828;6.440;2023-12-29T03:27:58;10.10;99.90
19555;DHT22;9924;50.828;6.440;2023-12-29T03:30:26;10.00;99.90
19555;DHT22;9924;50.828;6.440;2023-12-29T03:32:51;10.00;99.90
19555;DHT22;9924;50.828;6.440;2023-12-29T03:35:17;10.00;99.90
19555;DHT22;9924;50.828;6.440;2023-12-29T03:37:43;9.90;99.90
19555;DHT22;9924;50.828;6.440;2023-12-29T03:40:09;9.90;99.90
19555;DHT22;9924;50.828;6.440;2023-12-29T03:42:35;9.90;99.90
19555;DHT22;9924;50.828;6.440;2023-12-29T03:45:01;9.90;99.90
19555;DHT22;9924;50.828;6.440;2023-12-29T03:47:27;9.90;99.90
19555;DHT22;9924;50.828;6.440;2023-12-29T03:49:53;10.00;99.90
19555;DHT22;9924;50.828;6.440;2023-12-29T03:52:19;9.90;99.90
19555;DHT22;9924;50.828;6.440;2023-12-29T03:54:44;9.90;99.90
19555;DHT22;9924;50.828;6.440;2023-12-29T03:57:10;9.90;99.90
19555;DHT22;9924;50.828;6.440;2023-12-29T03:59:38;9.90;99.90
19555;DHT22;9924;50.828;6.440;2023-12-29T04:02:04;9.90;99.90
19555;DHT22;9924;50.828;6.440;2023-12-29T04:04:30;9.90;99.90
19555;DHT22;9924;50.828;6.440;2023-12-29T04:06:55;9.90;99.90
19555;DHT22;9924;50.828;6.440;2023-12-29T04:09:21;9.90;99.90
19555;DHT22;9924;50.828;6.440;2023-12-29T04:11:47;9.90;99.90
19555;DHT22;9924;50.828;6.440;2023-12-29T04:14:12;9.90;99.90
19555;DHT22;9924;50.828;6.440;2023-12-29T04:16:38;9.90;99.90
19555;DHT22;9924;50.828;6.440;2023-12-29T04:19:04;10.00;99.90
19555;DHT22;9924;50.828;6.440;2023-12-29T04:21:30;10.00;99.90
19555;DHT22;9924;50.828;6.440;2023-12-29T04:23:56;10.00;99.90
19555;DHT22;9924;50.828;6.440;2023-12-29T04:26:22;10.10;99.90
19555;DHT22;9924;50.828;6.440;2023-12-29T04:28:47;10.10;99.90
19555;DHT22;9924;50.828;6.440;2023-12-29T04:31:13;10.20;99.90
19555;DHT22;9924;50.828;6.440;2023-12-29T04:33:38;10.20;99.90
19555;DHT22;9924;50.828;6.440;2023-12-29T04:36:04;10.30;99.90
19555;DHT22;9924;50.828;6.440;2023-12-29T04:38:30;10.30;99.90
19555;DHT22;9924;50.828;6.440;2023-12-29T04:40:56;10.30;99.90
19555;DHT22;9924;50.828;6.440;2023-12-29T04:43:21;10.30;99.90
19555;DHT22;9924;50.828;6.440;2023-12-29T04:45:47;10.30;99.90
19555;DHT22;9924;50.828;6.440;2023-12-29T04:48:13;10.30;99.90
19555;DHT22;9924;50.828;6.440;2023-12-29T04:50:38;10.30;99.90
19555;DHT22;9924;50.828;6.440;2023-12-29T04:53:04;10.30;99.90
19555;DHT22;9924;50.828;6.440;2023-12-29T04:55:30;10.20;99.90
19555;DHT22;9924;50.828;6.440;2023-12-29T04:57:55;10.20;99.90
19555;DHT22;9924;50.828;6.440;2023-12-29T05:00:21;10.10;99.90
19555;DHT22;9924;50.828;6.440;2023-12-29T05:02:46;10.00;99.90
19555;DHT22;9924;50.828;6.440;2023-12-29T05:05:12;10.00;99.90
19555;DHT22;9924;50.828;6.440;2023-12-29T05:07:38;10.00;99.90
19555;DHT22;9924;50.828;6.440;2023-12-29T05:10:04;9.90;99.90
19555;DHT22;9924;50.828;6.440;2023-12-29T05:12:30;9.90;99.90
19555;DHT22;9924;50.828;6.440;2023-12-29T05:14:55;9.90;99.90
19555;DHT22;9924;50.828;6.440;2023-12-29T05:17:21;9.90;99.90
19555;DHT22;9924;50.828;6.440;2023-12-29T05:19:47;9.90;99.90
19555;DHT22;9924;50.828;6.440;2023-12-29T05:22:12;9.90;99.90
19555;DHT22;9924;50.828;6.440;2023-12-29T05:24:42;9.90;99.90
19555;DHT22;9924;50.828;6.440;2023-12-29T05:27:08;9.90;99.90
19555;DHT22;9924;50.828;6.440;2023-12-29T05:29:34;9.80;99.90
19555;DHT22;9924;50.828;6.440;2023-12-29T05:31:59;9.80;99.90
19555;DHT22;9924;50.828;6.440;2023-12-29T05:34:27;9.80;99.90
19555;DHT22;9924;50.828;6.440;2023-12-29T05:36:53;9.70;99.90
19555;DHT22;9924;50.828;6.440;2023-12-29T05:39:19;9.70;99.90
19555;DHT22;9924;50.828;6.440;2023-12-29T05:41:44;9.70;99.90
19555;DHT22;9924;50.828;6.440;2023-12-29T05:44:10;9.80;99.90
19555;DHT22;9924;50.828;6.440;2023-12-29T05:46:36;9.70;99.90
19555;DHT22;9924;50.828;6.440;2023-12-29T05:49:02;9.70;99.90
19555;DHT22;9924;50.828;6.440;2023-12-29T05:51:27;9.70;99.90
19555;DHT22;9924;50.828;6.440;2023-12-29T05:53:53;9.70;99.90
19555;DHT22;9924;50.828;6.440;2023-12-29T05:56:20;9.60;99.90
19555;DHT22;9924;50.828;6.440;2023-12-29T05:58:46;9.60;99.90
19555;DHT22;9924;50.828;6.440;2023-12-29T06:01:11;9.60;99.90
19555;DHT22;9924;50.828;6.440;2023-12-29T06:03:37;9.60;99.90
19555;DHT22;9924;50.828;6.440;2023-12-29T06:06:03;9.60;99.90
19555;DHT22;9924;50.828;6.440;2023-12-29T06:08:29;9.60;99.90
19555;DHT22;9924;50.828;6.440;2023-12-29T06:10:55;9.70;99.90
19555;DHT22;9924;50.828;6.440;2023-12-29T06:13:20;9.70;99.90
19555;DHT22;9924;50.828;6.440;2023-12-29T06:15:46;9.70;99.90
19555;DHT22;9924;50.828;6.440;2023-12-29T06:18:12;9.70;99.90
19555;DHT22;9924;50.828;6.440;2023-12-29T06:20:37;9.70;99.90
19555;DHT22;9924;50.828;6.440;2023-12-29T06:23:03;9.70;99.90
19555;DHT22;9924;50.828;6.440;2023-12-29T06:25:29;9.70;99.90
19555;DHT22;9924;50.828;6.440;2023-12-29T06:27:55;9.70;99.90
19555;DHT22;9924;50.828;6.440;2023-12-29T06:30:20;9.70;99.90
19555;DHT22;9924;50.828;6.440;2023-12-29T06:32:46;9.80;99.90
19555;DHT22;9924;50.828;6.440;2023-12-29T06:35:12;9.90;99.90
19555;DHT22;9924;50.828;6.440;2023-12-29T06:37:39;9.90;99.90
19555;DHT22;9924;50.828;6.440;2023-12-29T06:40:06;9.90;99.90
19555;DHT22;9924;50.828;6.440;2023-12-29T06:42:32;9.90;99.90
19555;DHT22;9924;50.828;6.440;2023-12-29T06:44:58;9.80;99.90
19555;DHT22;9924;50.828;6.440;2023-12-29T06:47:24;9.90;99.90
19555;DHT22;9924;50.828;6.440;2023-12-29T06:49:49;9.90;99.90
19555;DHT22;9924;50.828;6.440;2023-12-29T06:52:16;9.90;99.90
19555;DHT22;9924;50.828;6.440;2023-12-29T06:54:42;9.90;99.90
19555;DHT22;9924;50.828;6.440;2023-12-29T06:57:07;9.90;99.90
19555;DHT22;9924;50.828;6.440;2023-12-29T06:59:33;9.90;99.90
19555;DHT22;9924;50.828;6.440;2023-12-29T07:01:59;9.90;99.90
19555;DHT22;9924;50.828;6.440;2023-12-29T07:04:25;10.00;99.90
19555;DHT22;9924;50.828;6.440;2023-12-29T07:06:50;9.90;99.90
19555;DHT22;9924;50.828;6.440;2023-12-29T07:09:16;10.00;99.90
19555;DHT22;9924;50.828;6.440;2023-12-29T07:11:46;10.00;99.90
19555;DHT22;9924;50.828;6.440;2023-12-29T07:14:12;10.00;99.90
19555;DHT22;9924;50.828;6.440;2023-12-29T07:16:37;10.00;99.90
19555;DHT22;9924;50.828;6.440;2023-12-29T07:19:03;9.90;99.90
19555;DHT22;9924;50.828;6.440;2023-12-29T07:21:29;10.00;99.90
19555;DHT22;9924;50.828;6.440;2023-12-29T07:23:54;9.90;99.90
19555;DHT22;9924;50.828;6.440;2023-12-29T07:26:20;10.00;99.90
19555;DHT22;9924;50.828;6.440;2023-12-29T07:28:46;10.00;99.90
19555;DHT22;9924;50.828;6.440;2023-12-29T07:31:11;10.00;99.90
19555;DHT22;9924;50.828;6.440;2023-12-29T07:33:37;10.00;99.90
19555;DHT22;9924;50.828;6.440;2023-12-29T07:36:03;10.00;99.90
19555;DHT22;9924;50.828;6.440;2023-12-29T07:38:29;10.00;99.90
19555;DHT22;9924;50.828;6.440;2023-12-29T07:40:55;10.00;99.90
19555;DHT22;9924;50.828;6.440;2023-12-29T07:43:20;9.90;99.90
19555;DHT22;9924;50.828;6.440;2023-12-29T07:45:47;9.70;99.90
19555;DHT22;9924;50.828;6.440;2023-12-29T07:48:13;9.60;99.90
19555;DHT22;9924;50.828;6.440;2023-12-29T07:50:38;9.50;99.90
19555;DHT22;9924;50.828;6.440;2023-12-29T07:53:04;9.50;99.90
19555;DHT22;9924;50.828;6.440;2023-12-29T07:55:31;9.50;99.90
19555;DHT22;9924;50.828;6.440;2023-12-29T07:57:57;9.40;99.90
19555;DHT22;9924;50.828;6.440;2023-12-29T08:00:22;9.40;99.90
19555;DHT22;9924;50.828;6.440;2023-12-29T08:02:49;9.40;99.90
19555;DHT22;9924;50.828;6.440;2023-12-29T08:05:15;9.40;99.90
19555;DHT22;9924;50.828;6.440;2023-12-29T08:07:43;9.40;99.90
19555;DHT22;9924;50.828;6.440;2023-12-29T08:10:09;9.30;99.90
19555;DHT22;9924;50.828;6.440;2023-12-29T08:12:35;9.30;99.90
19555;DHT22;9924;50.828;6.440;2023-12-29T08:15:04;9.30;99.90
19555;DHT22;9924;50.828;6.440;2023-12-29T08:17:31;9.20;99.90
19555;DHT22;9924;50.828;6.440;2023-12-29T08:19:57;9.20;99.90
19555;DHT22;9924;50.828;6.440;2023-12-29T08:22:22;9.20;99.90
19555;DHT22;9924;50.828;6.440;2023-12-29T08:24:48;9.20;99.90
19555;DHT22;9924;50.828;6.440;2023-12-29T08:27:14;9.20;99.90
19555;DHT22;9924;50.828;6.440;2023-12-29T08:29:40;9.30;99.90
19555;DHT22;9924;50.828;6.440;2023-12-29T08:32:06;9.30;99.90
19555;DHT22;9924;50.828;6.440;2023-12-29T08:34:32;9.30;99.90
19555;DHT22;9924;50.828;6.440;2023-12-29T08:36:59;9.40;99.90
19555;DHT22;9924;50.828;6.440;2023-12-29T08:39:25;9.40;99.90
19555;DHT22;9924;50.828;6.440;2023-12-29T08:41:51;9.50;99.90
19555;DHT22;9924;50.828;6.440;2023-12-29T08:44:16;9.50;99.90
19555;DHT22;9924;50.828;6.440;2023-12-29T08:46:42;9.50;99.90
19555;DHT22;9924;50.828;6.440;2023-12-29T08:49:08;9.50;99.90
19555;DHT22;9924;50.828;6.440;2023-12-29T08:51:34;9.60;99.90
19555;DHT22;9924;50.828;6.440;2023-12-29T08:53:59;9.60;99.90
19555;DHT22;9924;50.828;6.440;2023-12-29T08:56:25;9.70;99.90
19555;DHT22;9924;50.828;6.440;2023-12-29T08:58:51;9.70;99.90
19555;DHT22;9924;50.828;6.440;2023-12-29T09:01:18;9.80;99.90
19555;DHT22;9924;50.828;6.440;2023-12-29T09:03:44;9.70;99.90
19555;DHT22;9924;50.828;6.440;2023-12-29T09:06:10;9.60;99.90
19555;DHT22;9924;50.828;6.440;2023-12-29T09:08:36;9.60;99.90
19555;DHT22;9924;50.828;6.440;2023-12-29T09:11:02;9.50;99.90
19555;DHT22;9924;50.828;6.440;2023-12-29T09:13:28;9.50;99.90
19555;DHT22;9924;50.828;6.440;2023-12-29T09:15:54;9.50;99.90
19555;DHT22;9924;50.828;6.440;2023-12-29T09:18:20;9.60;99.90
19555;DHT22;9924;50.828;6.440;2023-12-29T09:20:46;9.70;99.90
19555;DHT22;9924;50.828;6.440;2023-12-29T09:23:13;9.80;99.90
19555;DHT22;9924;50.828;6.440;2023-12-29T09:25:39;9.90;99.90
19555;DHT22;9924;50.828;6.440;2023-12-29T09:28:05;9.90;99.90
19555;DHT22;9924;50.828;6.440;2023-12-29T09:30:31;9.90;99.90
19555;DHT22;9924;50.828;6.440;2023-12-29T09:32:56;9.90;99.90
19555;DHT22;9924;50.828;6.440;2023-12-29T09:35:22;9.80;99.90
19555;DHT22;9924;50.828;6.440;2023-12-29T09:37:48;9.80;99.90
19555;DHT22;9924;50.828;6.440;2023-12-29T09:40:14;9.80;99.90
19555;DHT22;9924;50.828;6.440;2023-12-29T09:42:43;9.80;99.90
19555;DHT22;9924;50.828;6.440;2023-12-29T09:45:11;9.90;99.90
19555;DHT22;9924;50.828;6.440;2023-12-29T09:47:39;9.90;99.90
19555;DHT22;9924;50.828;6.440;2023-12-29T09:50:07;9.90;99.90
19555;DHT22;9924;50.828;6.440;2023-12-29T09:52:35;9.90;99.90
19555;DHT22;9924;50.828;6.440;2023-12-29T09:55:03;10.00;99.90
19555;DHT22;9924;50.828;6.440;2023-12-29T09:57:30;10.00;99.90
19555;DHT22;9924;50.828;6.440;2023-12-29T09:59:56;10.20;99.90
19555;DHT22;9924;50.828;6.440;2023-12-29T10:02:24;10.30;99.90
19555;DHT22;9924;50.828;6.440;2023-12-29T10:04:50;10.50;99.90
19555;DHT22;9924;50.828;6.440;2023-12-29T10:07:23;10.70;99.90
19555;DHT22;9924;50.828;6.440;2023-12-29T10:09:52;10.90;99.90
19555;DHT22;9924;50.828;6.440;2023-12-29T10:12:19;11.10;99.90
19555;DHT22;9924;50.828;6.440;2023-12-29T10:26:11;11.40;99.90
19555;DHT22;9924;50.828;6.440;2023-12-29T10:28:36;11.40;99.90
19555;DHT22;9924;50.828;6.440;2023-12-29T10:31:04;11.10;99.90
19555;DHT22;9924;50.828;6.440;2023-12-29T10:33:30;10.90;99.90
19555;DHT22;9924;50.828;6.440;2023-12-29T10:36:02;10.90;99.90
19555;DHT22;9924;50.828;6.440;2023-12-29T10:38:29;10.80;99.90
19555;DHT22;9924;50.828;6.440;2023-12-29T10:41:13;10.60;99.90
19555;DHT22;9924;50.828;6.440;2023-12-29T10:43:40;10.60;99.90
19555;DHT22;9924;50.828;6.440;2023-12-29T10:46:07;10.60;99.90
19555;DHT22;9924;50.828;6.440;2023-12-29T10:48:34;10.60;99.90
19555;DHT22;9924;50.828;6.440;2023-12-29T10:50:59;10.60;99.90
19555;DHT22;9924;50.828;6.440;2023-12-29T10:53:32;10.60;99.90
19555;DHT22;9924;50.828;6.440;2023-12-29T10:55:58;10.70;99.90
19555;DHT22;9924;50.828;6.440;2023-12-29T10:58:25;10.80;99.90
19555;DHT22;9924;50.828;6.440;2023-12-29T11:00:53;11.00;99.90
19555;DHT22;9924;50.828;6.440;2023-12-29T11:03:19;11.20;99.90
19555;DHT22;9924;50.828;6.440;2023-12-29T11:05:45;11.40;99.90
19555;DHT22;9924;50.828;6.440;2023-12-29T11:08:18;11.60;99.90
19555;DHT22;9924;50.828;6.440;2023-12-29T11:10:45;11.50;99.90
19555;DHT22;9924;50.828;6.440;2023-12-29T11:13:11;11.40;99.90
19555;DHT22;9924;50.828;6.440;2023-12-29T11:15:44;11.30;99.90
19555;DHT22;9924;50.828;6.440;2023-12-29T11:18:15;11.20;99.90
19555;DHT22;9924;50.828;6.440;2023-12-29T11:20:42;11.20;99.90
19555;DHT22;9924;50.828;6.440;2023-12-29T11:23:11;11.20;99.90
19555;DHT22;9924;50.828;6.440;2023-12-29T11:25:43;11.30;99.90
19555;DHT22;9924;50.828;6.440;2023-12-29T11:28:10;11.60;99.90
19555;DHT22;9924;50.828;6.440;2023-12-29T11:30:37;11.70;99.90
19555;DHT22;9924;50.828;6.440;2023-12-29T11:33:40;11.60;99.90
19555;DHT22;9924;50.828;6.440;2023-12-29T11:36:16;11.90;99.90
19555;DHT22;9924;50.828;6.440;2023-12-29T11:41:33;12.30;99.90
19555;DHT22;9924;50.828;6.440;2023-12-29T11:44:02;12.60;99.90
19555;DHT22;9924;50.828;6.440;2023-12-29T11:46:43;13.00;99.90
19555;DHT22;9924;50.828;6.440;2023-12-29T11:49:09;13.20;99.90
19555;DHT22;9924;50.828;6.440;2023-12-29T11:51:39;13.10;99.90
19555;DHT22;9924;50.828;6.440;2023-12-29T11:54:06;12.90;99.90
19555;DHT22;9924;50.828;6.440;2023-12-29T11:56:40;12.70;99.90
19555;DHT22;9924;50.828;6.440;2023-12-29T11:59:17;12.60;99.90
19555;DHT22;9924;50.828;6.440;2023-12-29T12:01:46;12.40;99.90
19555;DHT22;9924;50.828;6.440;2023-12-29T12:04:43;12.30;99.90
19555;DHT22;9924;50.828;6.440;2023-12-29T12:07:15;12.20;99.90
19555;DHT22;9924;50.828;6.440;2023-12-29T12:09:41;12.40;99.90
19555;DHT22;9924;50.828;6.440;2023-12-29T12:12:06;12.60;99.90
19555;DHT22;9924;50.828;6.440;2023-12-29T12:14:45;12.50;99.90
19555;DHT22;9924;50.828;6.440;2023-12-29T12:17:11;12.20;99.90
19555;DHT22;9924;50.828;6.440;2023-12-29T12:19:37;12.20;99.90
19555;DHT22;9924;50.828;6.440;2023-12-29T12:22:03;12.20;99.90
19555;DHT22;9924;50.828;6.440;2023-12-29T12:24:33;12.20;99.90
19555;DHT22;9924;50.828;6.440;2023-12-29T12:27:00;11.90;99.90
19555;DHT22;9924;50.828;6.440;2023-12-29T12:29:27;11.80;99.90
19555;DHT22;9924;50.828;6.440;2023-12-29T12:31:57;11.70;99.90
19555;DHT22;9924;50.828;6.440;2023-12-29T12:34:23;11.70;99.90
19555;DHT22;9924;50.828;6.440;2023-12-29T12:36:50;11.60;99.90
19555;DHT22;9924;50.828;6.440;2023-12-29T12:39:16;11.60;99.90
19555;DHT22;9924;50.828;6.440;2023-12-29T12:41:42;11.50;99.90
19555;DHT22;9924;50.828;6.440;2023-12-29T12:44:13;11.50;99.90
19555;DHT22;9924;50.828;6.440;2023-12-29T12:49:11;11.40;99.90
19555;DHT22;9924;50.828;6.440;2023-12-29T12:51:37;11.10;99.90
19555;DHT22;9924;50.828;6.440;2023-12-29T12:54:02;10.90;99.90
19555;DHT22;9924;50.828;6.440;2023-12-29T12:56:28;10.90;99.90
19555;DHT22;9924;50.828;6.440;2023-12-29T12:58:57;10.80;99.90
19555;DHT22;9924;50.828;6.440;2023-12-29T13:01:24;10.90;99.90
19555;DHT22;9924;50.828;6.440;2023-12-29T13:03:51;10.90;99.90
19555;DHT22;9924;50.828;6.440;2023-12-29T13:06:17;11.00;99.90
19555;DHT22;9924;50.828;6.440;2023-12-29T13:08:44;11.00;99.90
19555;DHT22;9924;50.828;6.440;2023-12-29T13:11:10;10.90;99.90
19555;DHT22;9924;50.828;6.440;2023-12-29T13:13:39;10.80;99.90
19555;DHT22;9924;50.828;6.440;2023-12-29T13:16:05;10.90;99.90
19555;DHT22;9924;50.828;6.440;2023-12-29T13:18:31;10.90;99.90
19555;DHT22;9924;50.828;6.440;2023-12-29T13:20:57;10.80;99.90
19555;DHT22;9924;50.828;6.440;2023-12-29T13:23:27;10.70;99.90
19555;DHT22;9924;50.828;6.440;2023-12-29T13:25:56;10.70;99.90
19555;DHT22;9924;50.828;6.440;2023-12-29T13:28:22;10.70;99.90
19555;DHT22;9924;50.828;6.440;2023-12-29T13:30:49;10.70;99.90
19555;DHT22;9924;50.828;6.440;2023-12-29T13:33:29;10.50;99.90
19555;DHT22;9924;50.828;6.440;2023-12-29T13:36:29;10.40;99.90
19555;DHT22;9924;50.828;6.440;2023-12-29T13:38:58;10.30;99.90
19555;DHT22;9924;50.828;6.440;2023-12-29T13:41:29;10.20;99.90
19555;DHT22;9924;50.828;6.440;2023-12-29T13:43:56;10.10;99.90
19555;DHT22;9924;50.828;6.440;2023-12-29T13:46:22;10.10;99.90
19555;DHT22;9924;50.828;6.440;2023-12-29T13:48:49;10.00;99.90
19555;DHT22;9924;50.828;6.440;2023-12-29T13:51:23;10.00;99.90
19555;DHT22;9924;50.828;6.440;2023-12-29T13:53:49;10.00;99.90
19555;DHT22;9924;50.828;6.440;2023-12-29T13:56:22;10.00;99.90
19555;DHT22;9924;50.828;6.440;2023-12-29T13:58:51;9.90;99.90
19555;DHT22;9924;50.828;6.440;2023-12-29T14:01:18;10.00;99.90
19555;DHT22;9924;50.828;6.440;2023-12-29T14:03:50;10.00;99.90
19555;DHT22;9924;50.828;6.440;2023-12-29T14:06:22;10.10;99.90
19555;DHT22;9924;50.828;6.440;2023-12-29T14:08:52;10.00;99.90
19555;DHT22;9924;50.828;6.440;2023-12-29T14:11:17;10.00;99.90
19555;DHT22;9924;50.828;6.440;2023-12-29T14:13:45;10.00;99.90
19555;DHT22;9924;50.828;6.440;2023-12-29T14:16:13;10.00;99.90
19555;DHT22;9924;50.828;6.440;2023-12-29T14:21:35;10.00;99.90
19555;DHT22;9924;50.828;6.440;2023-12-29T14:24:08;10.00;99.90
19555;DHT22;9924;50.828;6.440;2023-12-29T14:26:41;10.10;99.90
19555;DHT22;9924;50.828;6.440;2023-12-29T14:29:10;10.10;99.90
19555;DHT22;9924;50.828;6.440;2023-12-29T14:31:41;10.10;99.90
19555;DHT22;9924;50.828;6.440;2023-12-29T14:34:08;10.10;99.90
19555;DHT22;9924;50.828;6.440;2023-12-29T14:36:35;10.20;99.90
19555;DHT22;9924;50.828;6.440;2023-12-29T14:39:02;10.20;99.90
19555;DHT22;9924;50.828;6.440;2023-12-29T14:41:28;10.20;99.90
19555;DHT22;9924;50.828;6.440;2023-12-29T14:43:54;10.20;99.90
19555;DHT22;9924;50.828;6.440;2023-12-29T14:46:20;10.20;99.90
19555;DHT22;9924;50.828;6.440;2023-12-29T14:48:46;10.20;99.90
19555;DHT22;9924;50.828;6.440;2023-12-29T14:51:12;10.20;99.90
19555;DHT22;9924;50.828;6.440;2023-12-29T14:53:38;10.20;99.90
19555;DHT22;9924;50.828;6.440;2023-12-29T14:56:04;10.20;99.90
19555;DHT22;9924;50.828;6.440;2023-12-29T14:58:30;10.30;99.90
19555;DHT22;9924;50.828;6.440;2023-12-29T15:00:58;10.10;99.90
19555;DHT22;9924;50.828;6.440;2023-12-29T15:03:23;10.00;99.90
19555;DHT22;9924;50.828;6.440;2023-12-29T15:05:49;10.00;99.90
19555;DHT22;9924;50.828;6.440;2023-12-29T15:08:15;9.90;99.90
19555;DHT22;9924;50.828;6.440;2023-12-29T15:10:41;9.90;99.90
19555;DHT22;9924;50.828;6.440;2023-12-29T15:13:07;9.90;99.90
19555;DHT22;9924;50.828;6.440;2023-12-29T15:15:35;9.90;99.90
19555;DHT22;9924;50.828;6.440;2023-12-29T15:18:01;9.90;99.90
19555;DHT22;9924;50.828;6.440;2023-12-29T15:20:28;9.90;99.90
19555;DHT22;9924;50.828;6.440;2023-12-29T15:22:53;9.90;99.90
19555;DHT22;9924;50.828;6.440;2023-12-29T15:25:21;9.90;99.90
19555;DHT22;9924;50.828;6.440;2023-12-29T15:27:48;9.90;99.90
19555;DHT22;9924;50.828;6.440;2023-12-29T15:30:14;9.90;99.90
19555;DHT22;9924;50.828;6.440;2023-12-29T15:32:40;9.90;99.90
19555;DHT22;9924;50.828;6.440;2023-12-29T15:35:06;9.90;99.90
19555;DHT22;9924;50.828;6.440;2023-12-29T15:37:32;9.90;99.90
19555;DHT22;9924;50.828;6.440;2023-12-29T15:39:58;9.80;99.90
19555;DHT22;9924;50.828;6.440;2023-12-29T15:42:25;9.80;99.90
19555;DHT22;9924;50.828;6.440;2023-12-29T15:44:51;9.80;99.90
19555;DHT22;9924;50.828;6.440;2023-12-29T15:47:17;9.80;99.90
19555;DHT22;9924;50.828;6.440;2023-12-29T15:49:42;9.90;99.90
19555;DHT22;9924;50.828;6.440;2023-12-29T15:52:08;9.90;99.90
19555;DHT22;9924;50.828;6.440;2023-12-29T15:54:34;9.90;99.90
19555;DHT22;9924;50.828;6.440;2023-12-29T15:56:59;9.90;99.90
19555;DHT22;9924;50.828;6.440;2023-12-29T15:59:25;9.90;99.90
19555;DHT22;9924;50.828;6.440;2023-12-29T16:01:51;9.90;99.90
19555;DHT22;9924;50.828;6.440;2023-12-29T16:04:17;10.00;99.90
19555;DHT22;9924;50.828;6.440;2023-12-29T16:06:42;10.00;99.90
19555;DHT22;9924;50.828;6.440;2023-12-29T16:09:08;10.00;99.90
19555;DHT22;9924;50.828;6.440;2023-12-29T16:11:33;10.00;99.90